createdAt,value
2022-10-05T00:01:36.113Z,101165.39
2022-10-05T00:04:16.076Z,101168.42
2022-10-05T00:06:55.685Z,101171.13
2022-10-05T00:09:31.366Z,101161.85
2022-10-05T00:12:14.156Z,101167.60
2022-10-05T00:14:48.115Z,101161.86
2022-10-05T00:17:22.620Z,101160.97
2022-10-05T00:19:55.471Z,101158.27
2022-10-05T00:22:32.988Z,101148.76
2022-10-05T00:25:13.730Z,101141.65
2022-10-05T00:27:47.209Z,101134.55
2022-10-05T00:30:22.957Z,101127.39
2022-10-05T00:32:59.459Z,101115.81
2022-10-05T00:35:32.204Z,101111.17
2022-10-05T00:38:04.561Z,101108.41
2022-10-05T00:40:57.008Z,101118.90
2022-10-05T00:43:47.269Z,101124.16
2022-10-05T00:46:25.217Z,101127.88
2022-10-05T00:49:11.152Z,101131.36
2022-10-05T00:51:47.116Z,101132.54
2022-10-05T00:54:34.482Z,101131.34
2022-10-05T00:57:30.832Z,101122.65
2022-10-05T01:00:08.913Z,101114.29
2022-10-05T01:02:51.824Z,101114.21
2022-10-05T01:05:37.468Z,101113.91
2022-10-05T01:08:21.307Z,101114.73
2022-10-05T01:11:05.016Z,101117.45
2022-10-05T01:13:47.277Z,101117.77
2022-10-05T01:16:25.148Z,101119.70
2022-10-05T01:19:11.186Z,101117.61
2022-10-05T01:21:50.377Z,101100.66
2022-10-05T01:24:45.636Z,101084.79
2022-10-05T01:27:32.201Z,101112.21
2022-10-05T01:30:07.297Z,101113.54
2022-10-05T01:32:45.475Z,101112.36
2022-10-05T01:35:31.900Z,101109.38
2022-10-05T01:38:25.393Z,101105.97
2022-10-05T01:41:19.530Z,101108.58
2022-10-05T01:44:01.435Z,101109.10
2022-10-05T01:46:39.762Z,101109.35
2022-10-05T01:49:33.899Z,101101.65
2022-10-05T01:52:19.850Z,101106.02
2022-10-05T01:55:07.220Z,101105.27
2022-10-05T01:57:49.619Z,101103.03
2022-10-05T02:00:22.677Z,101086.96
2022-10-05T02:03:02.969Z,101095.23
2022-10-05T02:05:41.529Z,101089.83
2022-10-05T02:08:20.898Z,101092.71
2022-10-05T02:11:00.321Z,101057.79
2022-10-05T02:13:39.293Z,101086.17
2022-10-05T02:16:17.935Z,101085.91
2022-10-05T02:18:55.125Z,101084.35
2022-10-05T02:21:27.917Z,101073.65
2022-10-05T02:24:05.247Z,101067.11
2022-10-05T02:26:39.788Z,101071.71
2022-10-05T02:29:11.795Z,101077.78
2022-10-05T02:31:52.443Z,101079.34
2022-10-05T02:34:30.007Z,101079.62
2022-10-05T02:37:23.408Z,101082.91
2022-10-05T02:40:15.316Z,101093.81
2022-10-05T02:42:55.560Z,101099.11
2022-10-05T02:45:37.006Z,101099.31
2022-10-05T02:48:16.813Z,101093.36
2022-10-05T02:50:54.553Z,101088.62
2022-10-05T02:53:34.765Z,101073.04
2022-10-05T02:56:15.661Z,101084.09
2022-10-05T02:58:57.730Z,101082.43
2022-10-05T03:01:36.953Z,101076.64
2022-10-05T03:04:22.580Z,101063.43
2022-10-05T03:06:59.880Z,101057.79
2022-10-05T03:09:37.645Z,101057.55
2022-10-05T03:12:22.535Z,101059.11
2022-10-05T03:15:12.391Z,101058.27
2022-10-05T03:17:51.220Z,101063.52
2022-10-05T03:20:35.368Z,101050.70
2022-10-05T03:23:13.551Z,101072.04
2022-10-05T03:26:03.863Z,101076.02
2022-10-05T03:28:44.702Z,101078.52
2022-10-05T03:31:24.598Z,101071.77
2022-10-05T03:34:01.327Z,101065.86
2022-10-05T03:36:43.685Z,101067.09
2022-10-05T03:39:22.712Z,101063.39
2022-10-05T03:42:01.561Z,101061.35
2022-10-05T03:44:41.731Z,101053.55
2022-10-05T03:47:23.596Z,101057.48
2022-10-05T03:50:13.943Z,101062.75
2022-10-05T03:52:51.212Z,101066.80
2022-10-05T03:55:31.442Z,101069.23
2022-10-05T03:58:20.700Z,101075.36
2022-10-05T04:00:59.324Z,101071.70
2022-10-05T04:03:35.644Z,101069.06
2022-10-05T04:06:14.764Z,101063.17
2022-10-05T04:08:53.230Z,101057.49
2022-10-05T04:11:34.541Z,101053.89
2022-10-05T04:14:14.195Z,101057.79
2022-10-05T04:16:49.071Z,101055.37
2022-10-05T04:19:27.212Z,101053.77
2022-10-05T04:22:06.553Z,101050.50
2022-10-05T04:24:47.423Z,101056.55
2022-10-05T04:27:23.183Z,101062.19
2022-10-05T04:30:01.815Z,101063.48
2022-10-05T04:32:43.726Z,101066.14
2022-10-05T04:35:39.271Z,101068.70
2022-10-05T04:38:25.423Z,101067.42
2022-10-05T04:41:16.008Z,101070.31
2022-10-05T04:44:02.844Z,101065.96
2022-10-05T04:46:54.195Z,101069.59
2022-10-05T04:49:55.399Z,101067.90
2022-10-05T04:52:37.192Z,101066.48
2022-10-05T04:55:29.111Z,101063.90
2022-10-05T04:58:13.905Z,101062.33
2022-10-05T05:01:03.824Z,101064.82
2022-10-05T05:03:50.635Z,101059.07
2022-10-05T05:06:36.495Z,101058.70
2022-10-05T05:09:36.318Z,101069.93
2022-10-05T05:12:21.308Z,101064.84
2022-10-05T05:15:19.478Z,101042.04
2022-10-05T05:18:02.580Z,101049.20
2022-10-05T05:20:52.439Z,101042.73
2022-10-05T05:23:37.993Z,101047.95
2022-10-05T05:26:26.031Z,101050.64
2022-10-05T05:29:07.925Z,101051.63
2022-10-05T05:31:49.934Z,101052.27
2022-10-05T05:34:42.866Z,101050.06
2022-10-05T05:37:24.574Z,101040.46
2022-10-05T05:40:14.691Z,101040.31
2022-10-05T05:42:58.371Z,101055.98
2022-10-05T05:45:41.936Z,101059.65
2022-10-05T05:48:20.533Z,101060.10
2022-10-05T05:51:01.893Z,101053.41
2022-10-05T05:53:40.588Z,101042.48
2022-10-05T05:56:17.277Z,101054.40
2022-10-05T05:58:55.676Z,101057.04
2022-10-05T06:01:33.941Z,101056.27
2022-10-05T06:04:15.706Z,101054.45
2022-10-05T06:06:50.814Z,101050.83
2022-10-05T06:09:24.101Z,101049.15
2022-10-05T06:12:09.879Z,101056.64
2022-10-05T06:14:48.629Z,101059.27
2022-10-05T06:17:25.587Z,101053.03
2022-10-05T06:20:05.199Z,101057.91
2022-10-05T06:22:44.278Z,101062.48
2022-10-05T06:25:33.199Z,101066.27
2022-10-05T06:28:13.728Z,101067.20
2022-10-05T06:31:02.315Z,101069.81
2022-10-05T06:33:47.980Z,101063.05
2022-10-05T06:36:33.841Z,101052.93
2022-10-05T06:39:29.092Z,101057.46
2022-10-05T06:42:19.969Z,101059.84
2022-10-05T06:45:27.290Z,101057.48
2022-10-05T06:48:32.533Z,101051.67
2022-10-05T06:51:34.771Z,101043.27
2022-10-05T06:54:29.481Z,101050.49
2022-10-05T06:57:11.339Z,101052.06
2022-10-05T06:59:53.647Z,101050.38
2022-10-05T07:02:36.755Z,101047.90
2022-10-05T07:05:40.589Z,101042.22
2022-10-05T07:08:15.770Z,101043.55
2022-10-05T07:11:03.418Z,101053.08
2022-10-05T07:14:14.785Z,101052.91
2022-10-05T07:17:02.522Z,101048.96
2022-10-05T07:19:43.904Z,101044.89
2022-10-05T07:22:42.349Z,101043.02
2022-10-05T07:25:20.348Z,101040.71
2022-10-05T07:28:00.999Z,101039.53
2022-10-05T07:30:38.629Z,101040.11
2022-10-05T07:33:19.830Z,101046.39
2022-10-05T07:36:14.449Z,101042.52
2022-10-05T07:38:54.233Z,101043.90
2022-10-05T07:41:37.252Z,101039.32
2022-10-05T07:44:16.112Z,101043.48
2022-10-05T07:46:57.660Z,101032.52
2022-10-05T07:49:42.483Z,101046.45
2022-10-05T07:52:21.039Z,101047.41
2022-10-05T07:55:05.526Z,101049.48
2022-10-05T07:57:47.042Z,101049.04
2022-10-05T08:00:22.364Z,101031.46
2022-10-05T08:02:59.996Z,101043.35
2022-10-05T08:05:34.340Z,101046.76
2022-10-05T08:08:18.207Z,101046.08
2022-10-05T08:11:00.686Z,101026.80
2022-10-05T08:13:41.654Z,101041.44
2022-10-05T08:16:14.626Z,101043.54
2022-10-05T08:18:56.884Z,101039.47
2022-10-05T08:21:36.235Z,101039.73
2022-10-05T08:24:19.589Z,101036.75
2022-10-05T08:27:02.212Z,101044.32
2022-10-05T08:29:40.133Z,101043.23
2022-10-05T08:32:19.943Z,101049.02
2022-10-05T08:34:58.159Z,101047.60
2022-10-05T08:37:33.277Z,101045.23
2022-10-05T08:40:35.050Z,101053.28
2022-10-05T08:43:19.252Z,101051.98
2022-10-05T08:46:24.259Z,101052.35
2022-10-05T08:49:18.288Z,101061.38
2022-10-05T08:52:26.190Z,101064.71
2022-10-05T08:55:47.624Z,101063.38
2022-10-05T08:58:59.742Z,101061.06
2022-10-05T09:01:46.966Z,101051.75
2022-10-05T09:04:44.178Z,101036.52
2022-10-05T09:07:44.399Z,101041.30
2022-10-05T09:10:53.229Z,101016.80
2022-10-05T09:14:02.030Z,101031.95
2022-10-05T09:16:51.039Z,101033.73
2022-10-05T09:19:54.168Z,101036.92
2022-10-05T09:22:37.998Z,101036.73
2022-10-05T09:25:24.946Z,101038.00
2022-10-05T09:28:05.278Z,101036.23
2022-10-05T09:31:07.443Z,101037.77
2022-10-05T09:34:14.471Z,101036.48
2022-10-05T09:37:27.440Z,101029.51
2022-10-05T09:40:20.634Z,101039.52
2022-10-05T09:43:17.560Z,101035.38
2022-10-05T09:46:28.931Z,101033.10
2022-10-05T09:49:31.195Z,101016.88
2022-10-05T09:52:17.895Z,101010.95
2022-10-05T09:55:27.585Z,100993.86
2022-10-05T09:58:38.139Z,100995.91
2022-10-05T10:01:33.179Z,100999.35
2022-10-05T10:04:29.782Z,101004.56
2022-10-05T10:07:41.900Z,101003.92
2022-10-05T10:10:32.518Z,101000.63
2022-10-05T10:13:30.584Z,101000.42
2022-10-05T10:16:19.356Z,100995.60
2022-10-05T10:19:32.567Z,100992.40
2022-10-05T10:22:31.861Z,100989.71
2022-10-05T10:25:47.439Z,100989.88
2022-10-05T10:28:44.981Z,100993.95
2022-10-05T10:32:01.775Z,100997.20
2022-10-05T10:34:50.254Z,100988.42
2022-10-05T10:37:59.870Z,100973.27
2022-10-05T10:40:46.255Z,100983.58
2022-10-05T10:43:52.199Z,100992.64
2022-10-05T10:46:32.124Z,100978.14
2022-10-05T10:49:24.377Z,100986.83
2022-10-05T10:52:13.252Z,100970.91
2022-10-05T10:55:05.462Z,100966.42
2022-10-05T10:57:53.413Z,100967.36
2022-10-05T11:00:44.313Z,100968.74
2022-10-05T11:03:45.641Z,100965.21
2022-10-05T11:06:51.736Z,100966.27
2022-10-05T11:09:48.985Z,100975.73
2022-10-05T11:12:54.696Z,100975.00
2022-10-05T11:15:45.265Z,100960.55
2022-10-05T11:18:21.804Z,100970.35
2022-10-05T11:21:24.017Z,100970.43
2022-10-05T11:24:32.695Z,100972.04
2022-10-05T11:27:46.750Z,100979.98
2022-10-05T11:30:29.431Z,100988.84
2022-10-05T11:33:32.394Z,100988.98
2022-10-05T11:36:28.629Z,100989.31
2022-10-05T11:39:30.351Z,100989.47
2022-10-05T11:42:20.987Z,100984.33
2022-10-05T11:45:23.325Z,100984.09
2022-10-05T11:48:29.452Z,100983.30
2022-10-05T11:51:35.546Z,100977.27
2022-10-05T11:54:24.447Z,100971.73
2022-10-05T11:57:03.303Z,100962.96
2022-10-05T11:59:44.152Z,100961.19
2022-10-05T12:02:37.914Z,100956.69
2022-10-05T12:05:21.332Z,100952.98
2022-10-05T12:08:06.079Z,100950.17
2022-10-05T12:10:45.994Z,100945.90
2022-10-05T12:13:33.303Z,100901.98
2022-10-05T12:16:13.131Z,100934.67
2022-10-05T12:18:54.930Z,100929.70
2022-10-05T12:21:38.073Z,100924.80
2022-10-05T12:24:24.636Z,100914.60
2022-10-05T12:27:04.004Z,100907.02
2022-10-05T12:29:43.002Z,100902.20
2022-10-05T12:32:20.939Z,100907.81
2022-10-05T12:35:02.017Z,100910.48
2022-10-05T12:37:47.761Z,100907.27
2022-10-05T12:40:27.821Z,100904.54
2022-10-05T12:43:12.000Z,100902.52
2022-10-05T12:45:59.787Z,100898.48
2022-10-05T12:48:56.190Z,100900.02
2022-10-05T12:51:39.994Z,100894.46
2022-10-05T12:54:23.425Z,100894.30
2022-10-05T12:56:59.665Z,100895.11
2022-10-05T12:59:41.236Z,100870.87
2022-10-05T13:02:26.932Z,100887.48
2022-10-05T13:05:08.016Z,100882.48
2022-10-05T13:07:48.410Z,100883.80
2022-10-05T13:10:32.458Z,100881.86
2022-10-05T13:13:36.086Z,100875.70
2022-10-05T13:16:24.579Z,100874.42
2022-10-05T13:19:06.582Z,100868.46
2022-10-05T13:21:55.262Z,100870.31
2022-10-05T13:24:32.695Z,100873.10
2022-10-05T13:27:18.913Z,100869.23
2022-10-05T13:29:59.566Z,100869.63
2022-10-05T13:32:36.259Z,100864.14
2022-10-05T13:35:26.010Z,100865.09
2022-10-05T13:38:09.234Z,100859.45
2022-10-05T13:40:47.142Z,100857.65
2022-10-05T13:43:29.250Z,100841.70
2022-10-05T13:46:08.069Z,100849.17
2022-10-05T13:48:53.209Z,100847.25
2022-10-05T13:51:30.512Z,100831.89
2022-10-05T13:54:11.840Z,100831.30
2022-10-05T13:56:49.916Z,100839.94
2022-10-05T13:59:35.405Z,100835.89
2022-10-05T14:02:09.771Z,100833.20
2022-10-05T14:04:49.662Z,100831.92
2022-10-05T14:07:31.759Z,100834.60
2022-10-05T14:10:06.796Z,100832.52
2022-10-05T14:12:44.439Z,100828.36
2022-10-05T14:15:24.298Z,100826.19
2022-10-05T14:17:56.608Z,100825.06
2022-10-05T14:20:34.591Z,100826.59
2022-10-05T14:23:17.384Z,100806.77
2022-10-05T14:25:54.754Z,100819.54
2022-10-05T14:28:30.625Z,100819.35
2022-10-05T14:31:09.859Z,100819.54
2022-10-05T14:33:42.146Z,100818.24
2022-10-05T14:36:17.298Z,100815.20
2022-10-05T14:38:57.854Z,100812.96
2022-10-05T14:41:35.396Z,100808.94
2022-10-05T14:44:27.970Z,100803.23
2022-10-05T14:47:13.311Z,100802.12
2022-10-05T14:50:10.800Z,100802.56
2022-10-05T14:52:50.977Z,100796.92
2022-10-05T14:55:39.152Z,100794.27
2022-10-05T14:58:29.244Z,100795.98
2022-10-05T15:01:13.755Z,100783.46
2022-10-05T15:03:59.009Z,100784.41
2022-10-05T15:06:33.748Z,100788.20
2022-10-05T15:09:23.013Z,100783.27
2022-10-05T15:11:56.944Z,100785.14
2022-10-05T15:14:33.478Z,100784.82
2022-10-05T15:17:15.625Z,100788.35
2022-10-05T15:20:03.661Z,100786.67
2022-10-05T15:22:44.114Z,100787.64
2022-10-05T15:25:23.155Z,100783.77
2022-10-05T15:28:08.053Z,100780.48
2022-10-05T15:30:45.231Z,100780.24
2022-10-05T15:33:25.388Z,100778.73
2022-10-05T15:36:15.169Z,100775.67
2022-10-05T15:39:00.239Z,100774.23
2022-10-05T15:41:41.565Z,100771.73
2022-10-05T15:44:26.134Z,100768.86
2022-10-05T15:47:04.036Z,100766.14
2022-10-05T15:49:46.873Z,100762.93
2022-10-05T15:52:26.971Z,100754.05
2022-10-05T15:55:28.462Z,100764.98
2022-10-05T15:58:21.582Z,100759.45
2022-10-05T16:00:59.799Z,100768.95
2022-10-05T16:03:45.785Z,100760.38
2022-10-05T16:06:57.154Z,100756.30
2022-10-05T16:09:52.077Z,100765.30
2022-10-05T16:12:33.479Z,100765.72
2022-10-05T16:15:17.684Z,100766.61
2022-10-05T16:18:31.807Z,100767.75
2022-10-05T16:21:16.812Z,100752.52
2022-10-05T16:24:05.192Z,100768.80
2022-10-05T16:26:51.095Z,100765.44
2022-10-05T16:29:34.002Z,100769.63
2022-10-05T16:32:13.944Z,100771.20
2022-10-05T16:34:58.149Z,100770.80
2022-10-05T16:37:41.141Z,100776.98
2022-10-05T16:40:21.218Z,100780.91
2022-10-05T16:43:04.923Z,100776.66
2022-10-05T16:46:08.732Z,100780.59
2022-10-05T16:49:00.578Z,100777.45
2022-10-05T16:51:39.045Z,100780.89
2022-10-05T16:54:20.631Z,100779.19
2022-10-05T16:56:57.225Z,100765.55
2022-10-05T17:00:15.947Z,100782.23
2022-10-05T17:03:12.195Z,100784.77
2022-10-05T17:05:59.019Z,100790.13
2022-10-05T17:08:46.826Z,100791.88
2022-10-05T17:11:36.985Z,100790.27
2022-10-05T17:14:26.865Z,100790.10
2022-10-05T17:17:24.168Z,100789.91
2022-10-05T17:20:10.067Z,100791.76
2022-10-05T17:22:52.403Z,100796.06
2022-10-05T17:25:36.323Z,100795.62
2022-10-05T17:28:37.049Z,100797.67
2022-10-05T17:31:17.223Z,100798.52
2022-10-05T17:34:13.543Z,100796.04
2022-10-05T17:36:50.518Z,100800.19
2022-10-05T17:39:24.612Z,100797.60
2022-10-05T17:42:34.446Z,100783.84
2022-10-05T17:45:37.154Z,100789.69
2022-10-05T17:48:12.710Z,100795.92
2022-10-05T17:51:03.913Z,100791.94
2022-10-05T17:54:05.602Z,100777.81
2022-10-05T17:57:11.224Z,100788.76
2022-10-05T17:59:57.687Z,100781.80
2022-10-05T18:02:44.049Z,100779.01
2022-10-05T18:05:25.742Z,100781.42
2022-10-05T18:08:31.824Z,100784.58
2022-10-05T18:11:17.374Z,100767.40
2022-10-05T18:13:51.122Z,100781.31
2022-10-05T18:21:24.511Z,100775.70
2022-10-05T18:24:16.205Z,100776.01
2022-10-05T18:27:00.114Z,100765.86
2022-10-05T18:30:05.480Z,100770.70
2022-10-05T18:32:55.346Z,100767.85
2022-10-05T18:35:37.083Z,100768.70
2022-10-05T18:38:24.934Z,100765.48
2022-10-05T18:41:03.122Z,100764.88
2022-10-05T18:43:44.866Z,100768.86
2022-10-05T18:46:34.375Z,100769.36
2022-10-05T18:49:23.194Z,100771.38
2022-10-05T18:52:03.564Z,100761.80
2022-10-05T18:54:50.582Z,100774.37
2022-10-05T18:57:52.495Z,100779.97
2022-10-05T19:00:39.863Z,100778.19
2022-10-05T19:07:49.622Z,100782.54
2022-10-05T19:10:29.162Z,100777.76
2022-10-05T19:13:13.165Z,100779.36
2022-10-05T19:15:55.205Z,100780.81
2022-10-05T19:19:01.351Z,100783.11
2022-10-05T19:21:42.532Z,100772.55
2022-10-05T19:24:40.726Z,100785.43
2022-10-05T19:28:06.581Z,100789.30
2022-10-05T19:30:52.591Z,100790.61
2022-10-05T19:41:53.330Z,100789.97
2022-10-05T19:44:40.028Z,100790.36
2022-10-05T19:47:25.548Z,100789.05
2022-10-05T19:50:29.308Z,100794.09
2022-10-05T20:36:35.438Z,100839.91
2022-10-05T20:53:16.107Z,100837.52
2022-10-05T20:56:17.984Z,100844.14
2022-10-05T21:12:58.616Z,100846.09
2022-10-05T21:19:46.638Z,100846.85
2022-10-05T21:22:19.049Z,100842.44
2022-10-05T21:24:51.224Z,100821.52
2022-10-05T21:27:25.407Z,100850.30
2022-10-05T21:29:57.688Z,100851.49
2022-10-05T21:32:31.189Z,100852.73
2022-10-05T21:35:03.520Z,100853.59
2022-10-05T21:37:35.637Z,100857.39
2022-10-05T21:40:09.147Z,100855.92
2022-10-05T21:42:41.446Z,100863.06
2022-10-05T21:45:22.128Z,100863.48
2022-10-05T21:52:32.514Z,100861.19
2022-10-05T21:56:10.796Z,100867.66
2022-10-05T22:08:48.258Z,100866.73
2022-10-05T22:11:35.643Z,100869.68
2022-10-05T22:14:19.878Z,100867.89
2022-10-05T22:44:25.351Z,100852.59
2022-10-05T23:19:35.524Z,100882.36
